sensor_id;sensor_type;location;lat;lon;timestamp;pressure;altitude;pressure_sealevel;temperature;humidity
62800;BME280;48842;51.046;13.796;2023-02-19T00:01:33;100290.94;;;11.96;64.84
62800;BME280;48842;51.046;13.796;2023-02-19T00:04:04;100283.97;;;11.90;64.25
62800;BME280;48842;51.046;13.796;2023-02-19T00:06:31;100286.56;;;11.87;64.68
62800;BME280;48842;51.046;13.796;2023-02-19T00:08:57;100274.31;;;11.89;64.39
62800;BME280;48842;51.046;13.796;2023-02-19T00:11:25;100276.09;;;11.96;64.25
62800;BME280;48842;51.046;13.796;2023-02-19T00:13:52;100274.31;;;11.98;64.40
62800;BME280;48842;51.046;13.796;2023-02-19T00:16:26;100268.22;;;11.96;64.28
62800;BME280;48842;51.046;13.796;2023-02-19T00:18:52;100269.94;;;11.96;64.49
62800;BME280;48842;51.046;13.796;2023-02-19T00:21:18;100270.84;;;11.99;64.32
62800;BME280;48842;51.046;13.796;2023-02-19T00:23:48;100272.56;;;12.05;64.54
62800;BME280;48842;51.046;13.796;2023-02-19T00:26:13;100264.72;;;12.00;63.73
62800;BME280;48842;51.046;13.796;2023-02-19T00:28:38;100270.84;;;11.98;63.72
62800;BME280;48842;51.046;13.796;2023-02-19T00:31:27;100266.44;;;12.01;63.96
62800;BME280;48842;51.046;13.796;2023-02-19T00:33:55;100262.94;;;12.02;63.53
62800;BME280;48842;51.046;13.796;2023-02-19T00:36:21;100259.44;;;11.96;63.43
62800;BME280;48842;51.046;13.796;2023-02-19T00:38:47;100265.59;;;11.96;63.64
62800;BME280;48842;51.046;13.796;2023-02-19T00:41:14;100262.94;;;12.02;63.39
62800;BME280;48842;51.046;13.796;2023-02-19T00:43:52;100253.31;;;11.98;63.92
62800;BME280;48842;51.046;13.796;2023-02-19T00:46:20;100252.47;;;11.95;63.65
62800;BME280;48842;51.046;13.796;2023-02-19T00:48:46;100250.72;;;11.94;63.64
62800;BME280;48842;51.046;13.796;2023-02-19T00:51:11;100260.34;;;11.88;64.05
62800;BME280;48842;51.046;13.796;2023-02-19T00:53:37;100251.59;;;11.94;64.34
62800;BME280;48842;51.046;13.796;2023-02-19T00:56:02;100245.47;;;11.87;64.16
62800;BME280;48842;51.046;13.796;2023-02-19T00:58:28;100243.72;;;11.85;64.02
62800;BME280;48842;51.046;13.796;2023-02-19T01:00:53;100236.72;;;11.90;64.24
62800;BME280;48842;51.046;13.796;2023-02-19T01:03:19;100250.69;;;11.91;63.83
62800;BME280;48842;51.046;13.796;2023-02-19T01:05:46;100241.06;;;11.88;64.00
62800;BME280;48842;51.046;13.796;2023-02-19T01:08:12;100237.59;;;11.94;64.03
62800;BME280;48842;51.046;13.796;2023-02-19T01:10:37;100227.94;;;11.91;63.61
62800;BME280;48842;51.046;13.796;2023-02-19T01:13:02;100232.31;;;11.92;63.82
62800;BME280;48842;51.046;13.796;2023-02-19T01:15:27;100231.47;;;11.88;63.45
62800;BME280;48842;51.046;13.796;2023-02-19T01:17:53;100222.69;;;11.88;63.89
62800;BME280;48842;51.046;13.796;2023-02-19T01:20:18;100212.19;;;11.91;63.53
62800;BME280;48842;51.046;13.796;2023-02-19T01:22:43;100210.47;;;11.93;63.92
62800;BME280;48842;51.046;13.796;2023-02-19T01:25:08;100204.34;;;11.94;63.15
62800;BME280;48842;51.046;13.796;2023-02-19T01:27:34;100199.06;;;11.96;63.44
62800;BME280;48842;51.046;13.796;2023-02-19T01:29:59;100193.81;;;11.91;63.75
62800;BME280;48842;51.046;13.796;2023-02-19T01:32:24;100194.75;;;11.93;63.01
62800;BME280;48842;51.046;13.796;2023-02-19T01:34:50;100192.09;;;11.90;63.48
62800;BME280;48842;51.046;13.796;2023-02-19T01:37:15;100185.94;;;11.93;63.25
62800;BME280;48842;51.046;13.796;2023-02-19T01:39:40;100180.69;;;11.93;63.07
62800;BME280;48842;51.046;13.796;2023-02-19T01:42:12;100173.75;;;11.93;63.60
62800;BME280;48842;51.046;13.796;2023-02-19T01:47:03;100164.06;;;11.98;63.35
62800;BME280;48842;51.046;13.796;2023-02-19T01:49:31;100164.97;;;11.88;64.45
62800;BME280;48842;51.046;13.796;2023-02-19T01:52:01;100173.72;;;11.84;64.90
62800;BME280;48842;51.046;13.796;2023-02-19T01:54:31;100164.13;;;11.74;65.31
62800;BME280;48842;51.046;13.796;2023-02-19T01:57:05;100156.28;;;11.72;65.70
62800;BME280;48842;51.046;13.796;2023-02-19T01:59:32;100156.25;;;11.75;65.68
62800;BME280;48842;51.046;13.796;2023-02-19T02:01:59;100152.75;;;11.78;65.80
62800;BME280;48842;51.046;13.796;2023-02-19T02:04:24;100162.38;;;11.80;66.27
62800;BME280;48842;51.046;13.796;2023-02-19T02:06:54;100151.88;;;11.79;66.49
62800;BME280;48842;51.046;13.796;2023-02-19T02:09:24;100150.13;;;11.78;66.80
62800;BME280;48842;51.046;13.796;2023-02-19T02:12:09;100145.78;;;11.80;66.42
62800;BME280;48842;51.046;13.796;2023-02-19T02:14:39;100144.00;;;11.82;66.91
62800;BME280;48842;51.046;13.796;2023-02-19T02:17:28;100144.88;;;11.81;67.21
62800;BME280;48842;51.046;13.796;2023-02-19T02:20:00;100146.66;;;11.69;67.27
62800;BME280;48842;51.046;13.796;2023-02-19T02:22:43;100140.59;;;11.61;68.19
62800;BME280;48842;51.046;13.796;2023-02-19T02:31:03;100133.63;;;11.51;68.70
62800;BME280;48842;51.046;13.796;2023-02-19T02:33:36;100131.00;;;11.43;69.08
62800;BME280;48842;51.046;13.796;2023-02-19T02:36:08;100127.53;;;11.38;69.13
62800;BME280;48842;51.046;13.796;2023-02-19T02:38:37;100119.66;;;11.40;69.22
62800;BME280;48842;51.046;13.796;2023-02-19T02:41:03;100119.66;;;11.41;68.92
62800;BME280;48842;51.046;13.796;2023-02-19T02:43:29;100111.81;;;11.35;69.47
62800;BME280;48842;51.046;13.796;2023-02-19T02:45:54;100112.69;;;11.34;69.60
62800;BME280;48842;51.046;13.796;2023-02-19T02:48:34;100100.47;;;11.28;70.39
62800;BME280;48842;51.046;13.796;2023-02-19T02:51:23;100106.59;;;11.24;70.06
62800;BME280;48842;51.046;13.796;2023-02-19T02:53:53;100111.00;;;11.17;70.68
62800;BME280;48842;51.046;13.796;2023-02-19T02:56:40;100100.53;;;11.13;71.27
62800;BME280;48842;51.046;13.796;2023-02-19T02:59:09;100102.25;;;11.08;71.66
62800;BME280;48842;51.046;13.796;2023-02-19T03:01:45;100097.03;;;11.06;71.58
62800;BME280;48842;51.046;13.796;2023-02-19T03:04:39;100081.28;;;11.11;71.05
62800;BME280;48842;51.046;13.796;2023-02-19T03:07:32;100079.53;;;11.16;71.15
62800;BME280;48842;51.046;13.796;2023-02-19T03:10:02;100083.91;;;11.09;71.37
62800;BME280;48842;51.046;13.796;2023-02-19T03:12:29;100083.03;;;11.10;71.16
62800;BME280;48842;51.046;13.796;2023-02-19T03:15:15;100079.56;;;11.11;71.26
62800;BME280;48842;51.046;13.796;2023-02-19T03:18:02;100069.06;;;11.14;71.06
62800;BME280;48842;51.046;13.796;2023-02-19T03:20:50;100078.66;;;11.14;70.65
62800;BME280;48842;51.046;13.796;2023-02-19T03:23:18;100072.53;;;11.16;70.86
62800;BME280;48842;51.046;13.796;2023-02-19T03:25:45;100057.69;;;11.14;71.17
62800;BME280;48842;51.046;13.796;2023-02-19T03:28:32;100057.69;;;11.08;70.46
62800;BME280;48842;51.046;13.796;2023-02-19T03:31:20;100062.94;;;11.08;70.24
62800;BME280;48842;51.046;13.796;2023-02-19T03:33:52;100060.31;;;11.08;70.32
62800;BME280;48842;51.046;13.796;2023-02-19T03:36:19;100055.97;;;11.11;70.22
62800;BME280;48842;51.046;13.796;2023-02-19T03:39:02;100058.59;;;11.11;70.25
62800;BME280;48842;51.046;13.796;2023-02-19T03:41:35;100045.47;;;11.13;70.27
62800;BME280;48842;51.046;13.796;2023-02-19T03:46:55;100048.91;;;11.21;70.32
62800;BME280;48842;51.046;13.796;2023-02-19T03:49:49;100046.28;;;11.24;70.84
62800;BME280;48842;51.046;13.796;2023-02-19T03:52:35;100036.69;;;11.26;70.30
62800;BME280;48842;51.046;13.796;2023-02-19T03:55:11;100037.53;;;11.30;70.16
62800;BME280;48842;51.046;13.796;2023-02-19T03:57:50;100030.53;;;11.32;70.42
62800;BME280;48842;51.046;13.796;2023-02-19T04:00:20;100023.53;;;11.35;70.63
62800;BME280;48842;51.046;13.796;2023-02-19T04:02:58;100024.41;;;11.38;70.16
62800;BME280;48842;51.046;13.796;2023-02-19T04:05:29;100020.88;;;11.39;70.13
62800;BME280;48842;51.046;13.796;2023-02-19T04:08:05;100021.78;;;11.39;70.30
62800;BME280;48842;51.046;13.796;2023-02-19T04:10:33;100013.03;;;11.37;70.27
62800;BME280;48842;51.046;13.796;2023-02-19T04:13:05;100011.31;;;11.36;69.97
62800;BME280;48842;51.046;13.796;2023-02-19T04:15:33;100013.94;;;11.36;70.16
62800;BME280;48842;51.046;13.796;2023-02-19T04:18:05;100012.19;;;11.33;70.41
62800;BME280;48842;51.046;13.796;2023-02-19T04:20:35;100015.69;;;11.29;70.08
62800;BME280;48842;51.046;13.796;2023-02-19T04:23:03;100011.31;;;11.30;69.99
62800;BME280;48842;51.046;13.796;2023-02-19T04:25:29;100008.69;;;11.28;69.84
62800;BME280;48842;51.046;13.796;2023-02-19T04:27:57;100013.06;;;11.29;69.74
62800;BME280;48842;51.046;13.796;2023-02-19T04:30:23;100001.72;;;11.29;70.36
62800;BME280;48842;51.046;13.796;2023-02-19T04:32:48;99997.34;;;11.29;70.09
62800;BME280;48842;51.046;13.796;2023-02-19T04:35:13;100009.56;;;11.32;70.05
62800;BME280;48842;51.046;13.796;2023-02-19T04:37:38;99990.31;;;11.34;69.99
62800;BME280;48842;51.046;13.796;2023-02-19T04:40:04;100006.91;;;11.37;70.58
62800;BME280;48842;51.046;13.796;2023-02-19T04:42:29;99996.41;;;11.38;70.06
62800;BME280;48842;51.046;13.796;2023-02-19T04:44:54;99981.53;;;11.40;70.39
62800;BME280;48842;51.046;13.796;2023-02-19T04:47:20;99981.53;;;11.42;70.62
62800;BME280;48842;51.046;13.796;2023-02-19T04:49:45;99979.78;;;11.42;70.09
62800;BME280;48842;51.046;13.796;2023-02-19T04:52:11;99972.78;;;11.43;69.95
62800;BME280;48842;51.046;13.796;2023-02-19T04:54:36;99974.56;;;11.42;70.22
62800;BME280;48842;51.046;13.796;2023-02-19T04:57:02;99978.91;;;11.42;70.37
62800;BME280;48842;51.046;13.796;2023-02-19T04:59:27;99964.06;;;11.42;70.29
62800;BME280;48842;51.046;13.796;2023-02-19T05:01:52;99978.03;;;11.44;70.07
62800;BME280;48842;51.046;13.796;2023-02-19T05:04:17;99991.13;;;11.46;70.82
62800;BME280;48842;51.046;13.796;2023-02-19T05:06:43;99999.91;;;11.45;70.36
62800;BME280;48842;51.046;13.796;2023-02-19T05:09:08;99996.38;;;11.43;70.80
62800;BME280;48842;51.046;13.796;2023-02-19T05:11:33;99994.63;;;11.42;70.42
62800;BME280;48842;51.046;13.796;2023-02-19T05:13:58;99987.66;;;11.41;70.63
62800;BME280;48842;51.046;13.796;2023-02-19T05:16:24;99993.81;;;11.37;70.67
62800;BME280;48842;51.046;13.796;2023-02-19T05:18:49;100003.44;;;11.30;70.84
62800;BME280;48842;51.046;13.796;2023-02-19T05:21:15;100000.00;;;11.22;71.10
62800;BME280;48842;51.046;13.796;2023-02-19T05:23:40;100006.13;;;11.16;71.65
62800;BME280;48842;51.046;13.796;2023-02-19T05:26:12;100008.78;;;11.07;72.41
62800;BME280;48842;51.046;13.796;2023-02-19T05:28:41;100010.56;;;10.98;72.49
62800;BME280;48842;51.046;13.796;2023-02-19T05:31:07;100005.34;;;10.89;73.45
62800;BME280;48842;51.046;13.796;2023-02-19T05:33:33;99999.25;;;10.81;72.94
62800;BME280;48842;51.046;13.796;2023-02-19T05:35:58;100009.75;;;10.78;73.36
62800;BME280;48842;51.046;13.796;2023-02-19T05:38:24;100010.63;;;10.71;74.08
62800;BME280;48842;51.046;13.796;2023-02-19T05:40:50;100007.13;;;10.65;74.08
62800;BME280;48842;51.046;13.796;2023-02-19T05:43:16;100010.63;;;10.60;74.31
62800;BME280;48842;51.046;13.796;2023-02-19T05:45:42;100011.53;;;10.60;74.34
62800;BME280;48842;51.046;13.796;2023-02-19T05:48:07;100007.16;;;10.53;74.56
62800;BME280;48842;51.046;13.796;2023-02-19T05:50:34;100008.03;;;10.49;74.33
62800;BME280;48842;51.046;13.796;2023-02-19T05:53:01;100002.81;;;10.51;74.09
62800;BME280;48842;51.046;13.796;2023-02-19T05:55:27;100003.69;;;10.48;74.32
62800;BME280;48842;51.046;13.796;2023-02-19T05:57:53;100007.16;;;10.44;74.62
62800;BME280;48842;51.046;13.796;2023-02-19T06:00:19;100019.41;;;10.43;74.46
62800;BME280;48842;51.046;13.796;2023-02-19T06:02:45;100018.53;;;10.44;74.14
62800;BME280;48842;51.046;13.796;2023-02-19T06:05:10;100029.84;;;10.48;74.12
62800;BME280;48842;51.046;13.796;2023-02-19T06:07:37;100038.59;;;10.53;73.73
62800;BME280;48842;51.046;13.796;2023-02-19T06:10:04;100022.88;;;10.55;73.83
62800;BME280;48842;51.046;13.796;2023-02-19T06:12:30;100026.38;;;10.52;73.63
62800;BME280;48842;51.046;13.796;2023-02-19T06:14:55;100028.97;;;10.55;73.94
62800;BME280;48842;51.046;13.796;2023-02-19T06:17:20;100028.97;;;10.55;73.78
62800;BME280;48842;51.046;13.796;2023-02-19T06:19:46;100043.84;;;10.55;73.62
62800;BME280;48842;51.046;13.796;2023-02-19T06:22:13;100047.31;;;10.55;73.55
62800;BME280;48842;51.046;13.796;2023-02-19T06:24:38;100049.06;;;10.53;73.62
62800;BME280;48842;51.046;13.796;2023-02-19T06:27:07;100048.19;;;10.53;73.60
62800;BME280;48842;51.046;13.796;2023-02-19T06:29:33;100049.06;;;10.56;73.45
62800;BME280;48842;51.046;13.796;2023-02-19T06:31:59;100053.44;;;10.56;73.57
62800;BME280;48842;51.046;13.796;2023-02-19T06:34:24;100055.16;;;10.57;73.31
62800;BME280;48842;51.046;13.796;2023-02-19T06:36:50;100054.31;;;10.59;73.58
62800;BME280;48842;51.046;13.796;2023-02-19T06:39:16;100054.31;;;10.59;73.03
62800;BME280;48842;51.046;13.796;2023-02-19T06:41:41;100057.78;;;10.57;72.78
62800;BME280;48842;51.046;13.796;2023-02-19T06:44:06;100067.41;;;10.59;72.69
62800;BME280;48842;51.046;13.796;2023-02-19T06:46:31;100067.38;;;10.61;73.33
62800;BME280;48842;51.046;13.796;2023-02-19T06:48:57;100062.16;;;10.64;72.97
62800;BME280;48842;51.046;13.796;2023-02-19T06:51:22;100069.13;;;10.67;73.07
62800;BME280;48842;51.046;13.796;2023-02-19T06:53:51;100075.25;;;10.62;73.11
62800;BME280;48842;51.046;13.796;2023-02-19T06:56:25;100086.59;;;10.69;72.93
62800;BME280;48842;51.046;13.796;2023-02-19T06:58:56;100077.00;;;10.67;72.59
62800;BME280;48842;51.046;13.796;2023-02-19T07:01:22;100076.13;;;10.72;72.77
62800;BME280;48842;51.046;13.796;2023-02-19T07:03:48;100078.72;;;10.77;72.51
62800;BME280;48842;51.046;13.796;2023-02-19T07:06:13;100090.97;;;10.81;72.58
62800;BME280;48842;51.046;13.796;2023-02-19T07:08:39;100090.97;;;10.81;72.48
62800;BME280;48842;51.046;13.796;2023-02-19T07:11:04;100097.94;;;10.76;72.73
62800;BME280;48842;51.046;13.796;2023-02-19T07:13:29;100102.31;;;10.77;72.58
62800;BME280;48842;51.046;13.796;2023-02-19T07:16:03;100105.81;;;10.73;72.51
62800;BME280;48842;51.046;13.796;2023-02-19T07:18:29;100112.81;;;10.68;72.73
62800;BME280;48842;51.046;13.796;2023-02-19T07:21:01;100119.75;;;10.72;72.71
62800;BME280;48842;51.046;13.796;2023-02-19T07:23:26;100118.03;;;10.66;73.04
62800;BME280;48842;51.046;13.796;2023-02-19T07:25:52;100121.53;;;10.68;73.07
62800;BME280;48842;51.046;13.796;2023-02-19T07:28:17;100125.00;;;10.70;73.42
62800;BME280;48842;51.046;13.796;2023-02-19T07:30:42;100124.13;;;10.71;73.71
62800;BME280;48842;51.046;13.796;2023-02-19T07:33:09;100134.63;;;10.70;73.58
62800;BME280;48842;51.046;13.796;2023-02-19T07:35:34;100149.47;;;10.68;73.30
62800;BME280;48842;51.046;13.796;2023-02-19T07:38:00;100162.53;;;10.63;73.58
62800;BME280;48842;51.046;13.796;2023-02-19T07:40:25;100165.16;;;10.54;72.47
62800;BME280;48842;51.046;13.796;2023-02-19T07:42:50;100180.03;;;10.52;72.38
62800;BME280;48842;51.046;13.796;2023-02-19T07:45:16;100182.63;;;10.52;72.28
62800;BME280;48842;51.046;13.796;2023-02-19T07:47:41;100187.88;;;10.47;71.85
62800;BME280;48842;51.046;13.796;2023-02-19T07:50:07;100184.34;;;10.43;71.91
62800;BME280;48842;51.046;13.796;2023-02-19T07:52:32;100188.72;;;10.40;71.60
62800;BME280;48842;51.046;13.796;2023-02-19T07:54:58;100199.16;;;10.34;71.68
62800;BME280;48842;51.046;13.796;2023-02-19T07:57:23;100206.97;;;10.24;71.07
62800;BME280;48842;51.046;13.796;2023-02-19T07:59:49;100205.19;;;10.20;70.97
62800;BME280;48842;51.046;13.796;2023-02-19T08:02:18;100213.91;;;10.16;71.06
62800;BME280;48842;51.046;13.796;2023-02-19T08:05:05;100223.50;;;10.14;71.16
62800;BME280;48842;51.046;13.796;2023-02-19T08:07:35;100226.09;;;10.06;70.64
62800;BME280;48842;51.046;13.796;2023-02-19T08:10:02;100230.44;;;10.03;70.51
62800;BME280;48842;51.046;13.796;2023-02-19T08:12:57;100237.41;;;10.01;70.91
62800;BME280;48842;51.046;13.796;2023-02-19T08:15:41;100248.72;;;9.96;70.78
62800;BME280;48842;51.046;13.796;2023-02-19T08:18:07;100253.94;;;9.93;70.52
62800;BME280;48842;51.046;13.796;2023-02-19T08:20:32;100254.81;;;9.92;70.19
62800;BME280;48842;51.046;13.796;2023-02-19T08:22:57;100256.56;;;9.92;70.44
62800;BME280;48842;51.046;13.796;2023-02-19T08:25:23;100265.28;;;9.91;70.92
62800;BME280;48842;51.046;13.796;2023-02-19T08:27:48;100265.28;;;9.92;70.25
62800;BME280;48842;51.046;13.796;2023-02-19T08:30:14;100293.09;;;9.78;68.95
62800;BME280;48842;51.046;13.796;2023-02-19T08:32:39;100298.28;;;9.70;69.58
62800;BME280;48842;51.046;13.796;2023-02-19T08:35:05;100326.06;;;9.56;69.14
62800;BME280;48842;51.046;13.796;2023-02-19T08:37:30;100327.72;;;9.46;69.06
62800;BME280;48842;51.046;13.796;2023-02-19T08:39:55;100343.34;;;9.38;68.99
62800;BME280;48842;51.046;13.796;2023-02-19T08:42:20;100336.31;;;9.33;69.18
62800;BME280;48842;51.046;13.796;2023-02-19T08:44:45;100334.59;;;9.30;69.30
62800;BME280;48842;51.046;13.796;2023-02-19T08:47:11;100345.91;;;9.29;68.90
62800;BME280;48842;51.046;13.796;2023-02-19T08:49:36;100366.75;;;9.24;68.80
62800;BME280;48842;51.046;13.796;2023-02-19T08:52:01;100374.59;;;9.24;68.96
62800;BME280;48842;51.046;13.796;2023-02-19T08:54:27;100387.66;;;9.23;68.84
62800;BME280;48842;51.046;13.796;2023-02-19T08:56:52;100392.81;;;9.17;68.69
62800;BME280;48842;51.046;13.796;2023-02-19T08:59:17;100397.06;;;9.07;68.30
62800;BME280;48842;51.046;13.796;2023-02-19T09:01:44;100421.34;;;8.97;68.59
62800;BME280;48842;51.046;13.796;2023-02-19T09:04:11;100429.09;;;8.90;68.68
62800;BME280;48842;51.046;13.796;2023-02-19T09:06:37;100438.53;;;8.79;67.97
62800;BME280;48842;51.046;13.796;2023-02-19T09:09:03;100440.09;;;8.65;67.81
62800;BME280;48842;51.046;13.796;2023-02-19T09:11:28;100445.25;;;8.59;68.14
62800;BME280;48842;51.046;13.796;2023-02-19T09:13:57;100451.28;;;8.56;68.77
62800;BME280;48842;51.046;13.796;2023-02-19T09:16:34;100460.00;;;8.58;68.98
62800;BME280;48842;51.046;13.796;2023-02-19T09:19:00;100473.00;;;8.53;68.67
62800;BME280;48842;51.046;13.796;2023-02-19T09:21:25;100480.72;;;8.44;68.20
62800;BME280;48842;51.046;13.796;2023-02-19T09:23:50;100490.19;;;8.42;68.48
62800;BME280;48842;51.046;13.796;2023-02-19T09:26:16;100490.16;;;8.39;68.72
62800;BME280;48842;51.046;13.796;2023-02-19T09:28:41;100495.31;;;8.36;68.27
62800;BME280;48842;51.046;13.796;2023-02-19T09:31:12;100510.81;;;8.24;66.87
62800;BME280;48842;51.046;13.796;2023-02-19T09:33:41;100521.06;;;8.14;66.26
62800;BME280;48842;51.046;13.796;2023-02-19T09:36:06;100539.97;;;7.99;65.02
62800;BME280;48842;51.046;13.796;2023-02-19T09:38:31;100539.59;;;7.79;64.65
62800;BME280;48842;51.046;13.796;2023-02-19T09:40:57;100545.44;;;7.67;64.86
62800;BME280;48842;51.046;13.796;2023-02-19T09:43:25;100547.94;;;7.61;65.47
62800;BME280;48842;51.046;13.796;2023-02-19T09:46:02;100558.34;;;7.60;65.39
62800;BME280;48842;51.046;13.796;2023-02-19T09:48:29;100573.06;;;7.58;65.02
62800;BME280;48842;51.046;13.796;2023-02-19T09:50:55;100576.50;;;7.55;65.51
62800;BME280;48842;51.046;13.796;2023-02-19T09:53:27;100570.44;;;7.58;65.64
62800;BME280;48842;51.046;13.796;2023-02-19T09:55:54;100580.22;;;7.68;65.74
62800;BME280;48842;51.046;13.796;2023-02-19T09:58:34;100581.28;;;7.78;65.36
62800;BME280;48842;51.046;13.796;2023-02-19T10:01:02;100581.28;;;7.78;65.01
62800;BME280;48842;51.046;13.796;2023-02-19T10:03:30;100586.59;;;7.84;65.24
62800;BME280;48842;51.046;13.796;2023-02-19T10:06:00;100595.53;;;7.97;65.37
62800;BME280;48842;51.046;13.796;2023-02-19T10:08:32;100601.06;;;8.12;65.38
62800;BME280;48842;51.046;13.796;2023-02-19T10:10:59;100607.34;;;8.22;64.78
62800;BME280;48842;51.046;13.796;2023-02-19T10:13:36;100607.41;;;8.27;64.65
62800;BME280;48842;51.046;13.796;2023-02-19T10:16:05;100617.13;;;8.35;64.53
62800;BME280;48842;51.046;13.796;2023-02-19T10:18:39;100611.25;;;8.46;64.18
62800;BME280;48842;51.046;13.796;2023-02-19T10:21:11;100622.69;;;8.55;64.51
62800;BME280;48842;51.046;13.796;2023-02-19T10:23:39;100627.06;;;8.55;63.60
62800;BME280;48842;51.046;13.796;2023-02-19T10:26:05;100630.50;;;8.52;62.69
62800;BME280;48842;51.046;13.796;2023-02-19T10:28:33;100633.88;;;8.47;63.16
62800;BME280;48842;51.046;13.796;2023-02-19T10:31:04;100642.63;;;8.49;63.22
62800;BME280;48842;51.046;13.796;2023-02-19T10:33:31;100645.00;;;8.38;61.87
62800;BME280;48842;51.046;13.796;2023-02-19T10:36:06;100644.13;;;8.37;62.08
62800;BME280;48842;51.046;13.796;2023-02-19T10:38:34;100648.66;;;8.46;62.71
62800;BME280;48842;51.046;13.796;2023-02-19T10:41:13;100651.28;;;8.48;62.31
62800;BME280;48842;51.046;13.796;2023-02-19T10:43:42;100653.97;;;8.52;62.02
62800;BME280;48842;51.046;13.796;2023-02-19T10:47:01;100662.13;;;8.69;61.66
62800;BME280;48842;51.046;13.796;2023-02-19T10:49:25;100663.03;;;8.73;60.75
62800;BME280;48842;51.046;13.796;2023-02-19T10:51:57;100668.34;;;8.76;61.17
62800;BME280;48842;51.046;13.796;2023-02-19T10:54:28;100675.19;;;8.71;60.59
62800;BME280;48842;51.046;13.796;2023-02-19T10:59:48;100676.59;;;8.50;60.93
62800;BME280;48842;51.046;13.796;2023-02-19T11:02:19;100682.00;;;8.63;62.12
62800;BME280;48842;51.046;13.796;2023-02-19T11:05:03;100683.06;;;8.72;61.33
62800;BME280;48842;51.046;13.796;2023-02-19T11:07:29;100706.63;;;8.77;60.22
62800;BME280;48842;51.046;13.796;2023-02-19T11:09:55;100689.25;;;8.78;59.10
62800;BME280;48842;51.046;13.796;2023-02-19T11:12:25;100696.28;;;8.83;59.58
62800;BME280;48842;51.046;13.796;2023-02-19T11:14:51;100700.75;;;8.90;59.39
62800;BME280;48842;51.046;13.796;2023-02-19T11:17:25;100701.59;;;8.86;58.93
62800;BME280;48842;51.046;13.796;2023-02-19T11:20:14;100701.69;;;8.93;59.93
62800;BME280;48842;51.046;13.796;2023-02-19T11:22:42;100708.81;;;9.03;60.12
62800;BME280;48842;51.046;13.796;2023-02-19T11:28:02;100720.13;;;9.02;58.14
62800;BME280;48842;51.046;13.796;2023-02-19T11:35:50;100721.38;;;8.73;58.74
62800;BME280;48842;51.046;13.796;2023-02-19T11:38:17;100728.25;;;8.68;57.89
62800;BME280;48842;51.046;13.796;2023-02-19T11:44:00;100737.53;;;8.52;58.03
62800;BME280;48842;51.046;13.796;2023-02-19T11:46:49;100723.69;;;8.56;57.92
62800;BME280;48842;51.046;13.796;2023-02-19T11:57:14;100729.25;;;8.75;57.62
62800;BME280;48842;51.046;13.796;2023-02-19T11:59:47;100736.28;;;8.79;57.86
62800;BME280;48842;51.046;13.796;2023-02-19T12:02:44;100743.31;;;8.83;56.42
62800;BME280;48842;51.046;13.796;2023-02-19T12:08:04;100748.44;;;8.77;56.19
62800;BME280;48842;51.046;13.796;2023-02-19T12:19:10;100778.09;;;8.81;55.33
62800;BME280;48842;51.046;13.796;2023-02-19T12:22:09;100785.91;;;8.79;54.87
62800;BME280;48842;51.046;13.796;2023-02-19T12:24:49;100770.50;;;8.95;55.37
62800;BME280;48842;51.046;13.796;2023-02-19T12:27:32;100776.03;;;9.12;55.06
62800;BME280;48842;51.046;13.796;2023-02-19T12:30:27;100783.22;;;9.25;53.74
62800;BME280;48842;51.046;13.796;2023-02-19T12:33:19;100780.06;;;9.46;54.38
62800;BME280;48842;51.046;13.796;2023-02-19T12:38:42;100781.19;;;9.64;52.37
62800;BME280;48842;51.046;13.796;2023-02-19T12:41:35;100776.69;;;9.55;50.94
62800;BME280;48842;51.046;13.796;2023-02-19T12:44:24;100775.78;;;9.51;51.17
62800;BME280;48842;51.046;13.796;2023-02-19T12:46:55;100766.91;;;9.40;51.25
62800;BME280;48842;51.046;13.796;2023-02-19T12:49:36;100762.59;;;9.42;51.55
62800;BME280;48842;51.046;13.796;2023-02-19T12:52:12;100763.53;;;9.49;51.60
62800;BME280;48842;51.046;13.796;2023-02-19T12:54:43;100773.19;;;9.53;51.53
62800;BME280;48842;51.046;13.796;2023-02-19T12:57:13;100763.50;;;9.46;51.09
62800;BME280;48842;51.046;13.796;2023-02-19T12:59:47;100768.63;;;9.38;51.14
62800;BME280;48842;51.046;13.796;2023-02-19T13:05:20;100776.25;;;9.25;51.98
62800;BME280;48842;51.046;13.796;2023-02-19T13:10:53;100787.84;;;9.43;49.93
62800;BME280;48842;51.046;13.796;2023-02-19T13:13:48;100784.41;;;9.46;49.48
62800;BME280;48842;51.046;13.796;2023-02-19T13:16:18;100786.91;;;9.38;49.44
62800;BME280;48842;51.046;13.796;2023-02-19T13:18:55;100809.66;;;9.42;49.02
62800;BME280;48842;51.046;13.796;2023-02-19T13:21:29;100798.31;;;9.43;49.59
62800;BME280;48842;51.046;13.796;2023-02-19T13:24:20;100798.44;;;9.49;49.27
62800;BME280;48842;51.046;13.796;2023-02-19T13:30:06;100807.72;;;9.30;48.50
62800;BME280;48842;51.046;13.796;2023-02-19T13:35:57;100793.69;;;9.26;48.34
62800;BME280;48842;51.046;13.796;2023-02-19T13:38:30;100805.81;;;9.21;48.25
62800;BME280;48842;51.046;13.796;2023-02-19T13:40:57;100811.28;;;9.37;49.13
62800;BME280;48842;51.046;13.796;2023-02-19T13:43:26;100806.38;;;9.55;48.88
62800;BME280;48842;51.046;13.796;2023-02-19T13:46:01;100796.88;;;9.64;47.77
62800;BME280;48842;51.046;13.796;2023-02-19T13:48:35;100802.41;;;9.82;46.93
62800;BME280;48842;51.046;13.796;2023-02-19T13:53:56;100808.84;;;10.75;45.97
62800;BME280;48842;51.046;13.796;2023-02-19T14:04:22;100823.78;;;11.86;42.47
62800;BME280;48842;51.046;13.796;2023-02-19T14:14:53;100797.03;;;14.16;40.11
62800;BME280;48842;51.046;13.796;2023-02-19T14:17:42;100807.34;;;14.72;38.68
62800;BME280;48842;51.046;13.796;2023-02-19T14:27:47;100819.91;;;14.09;39.61